North Canaan, Connecticut
Current Conditions -  °F | °C
As of 4:54 PM on Thursday 18 Dec 2014 (Local Time) from KPSF Reporting Station
Overcast Overcast  
Wind Chill: 21°   Ceiling: 1900
Heat Index: 31°   Visibility: 10mi
Dew Point: 25°   Wind: 13mph
Humidity: 79%   Direction: 280°W
Pressure: 29.87"   Gusts: NA
Location:  42.0294°N, 73.3073°W
Report Text: KPSF 182154Z AUTO 28011KT 10SM OVC019 M01/M04 A2987 RMK AO2 SLP126 T10061039
Loading
Personal Weather Stations






























Interactive Weather Map New forecast layout! Learn more

10-Day Weather Forecast

Advertisements
Track Severe Weather on mobile